createdAt,value
2019-02-27T00:00:37.463Z,99.99
2019-02-27T00:01:37.463Z,99.99
2019-02-27T00:02:37.424Z,99.99
2019-02-27T00:03:37.339Z,99.99
2019-02-27T00:04:37.309Z,99.99
2019-02-27T00:05:38.887Z,99.99
2019-02-27T00:06:37.251Z,99.99
2019-02-27T00:07:37.154Z,99.99
2019-02-27T00:08:37.123Z,99.99
2019-02-27T00:09:37.077Z,99.99
2019-02-27T00:10:39.265Z,99.99
2019-02-27T00:11:36.997Z,99.99
2019-02-27T00:12:36.942Z,99.99
2019-02-27T00:13:36.910Z,99.99
2019-02-27T00:14:36.866Z,99.99
2019-02-27T00:15:37.943Z,99.99
2019-02-27T00:16:36.784Z,99.99
2019-02-27T00:17:36.732Z,99.99
2019-02-27T00:18:36.712Z,99.99
2019-02-27T00:19:36.672Z,99.99
2019-02-27T00:20:37.069Z,99.99
2019-02-27T00:21:36.593Z,99.99
2019-02-27T00:22:36.535Z,99.99
2019-02-27T00:23:36.477Z,99.99
2019-02-27T00:24:36.453Z,99.99
2019-02-27T00:25:36.745Z,99.99
2019-02-27T00:26:36.352Z,99.99
2019-02-27T00:27:36.314Z,99.99
2019-02-27T00:28:36.282Z,99.99
2019-02-27T00:29:36.231Z,99.99
2019-02-27T00:30:38.119Z,99.99
2019-02-27T00:31:36.136Z,99.99
2019-02-27T00:32:36.146Z,99.99
2019-02-27T00:33:36.054Z,99.99
2019-02-27T00:34:36.023Z,99.99
2019-02-27T00:35:38.681Z,99.99
2019-02-27T00:36:35.936Z,99.99
2019-02-27T00:37:35.889Z,99.99
2019-02-27T00:38:35.832Z,99.99
2019-02-27T00:39:35.798Z,99.99
2019-02-27T00:40:38.551Z,99.99
2019-02-27T00:41:35.749Z,99.99
2019-02-27T00:42:35.671Z,99.99
2019-02-27T00:43:35.644Z,99.99
2019-02-27T00:44:35.590Z,99.99
2019-02-27T00:45:39.875Z,99.99
2019-02-27T00:46:35.496Z,99.99
2019-02-27T00:47:35.464Z,99.99
2019-02-27T00:48:35.411Z,99.99
2019-02-27T00:49:35.389Z,99.99
2019-02-27T00:50:38.924Z,99.99
2019-02-27T00:51:35.318Z,99.99
2019-02-27T00:52:35.264Z,99.99
2019-02-27T00:53:35.207Z,99.99
2019-02-27T00:54:35.158Z,99.99
2019-02-27T00:55:38.565Z,99.99
2019-02-27T00:56:35.103Z,99.99
2019-02-27T00:57:35.032Z,99.99
2019-02-27T00:58:35.036Z,99.99
2019-02-27T00:59:34.943Z,99.99
2019-02-27T01:00:39.095Z,99.99
2019-02-27T01:01:34.878Z,99.99
2019-02-27T01:02:34.816Z,99.99
2019-02-27T01:03:34.776Z,99.99
2019-02-27T01:04:35.209Z,99.99
2019-02-27T01:05:34.690Z,99.99
2019-02-27T01:06:34.641Z,99.99
2019-02-27T01:07:34.612Z,99.99
2019-02-27T01:08:34.563Z,99.99
2019-02-27T01:09:34.549Z,99.99
2019-02-27T01:10:34.534Z,99.99
2019-02-27T01:11:34.422Z,99.99
2019-02-27T01:12:34.390Z,99.99
2019-02-27T01:13:34.385Z,99.99
2019-02-27T01:14:36.895Z,99.99
2019-02-27T01:15:34.307Z,99.99
2019-02-27T01:16:34.833Z,99.99
2019-02-27T01:17:34.185Z,99.99
2019-02-27T01:18:34.131Z,99.99
2019-02-27T01:19:38.454Z,99.99
2019-02-27T01:20:34.063Z,99.99
2019-02-27T01:21:34.031Z,99.99
2019-02-27T01:22:33.958Z,99.99
2019-02-27T01:23:33.918Z,99.99
2019-02-27T01:24:33.908Z,99.99
2019-02-27T01:25:33.836Z,99.99
2019-02-27T01:26:33.786Z,99.99
2019-02-27T01:27:37.865Z,99.99
2019-02-27T01:28:33.709Z,99.99
2019-02-27T01:29:33.740Z,99.99
2019-02-27T01:30:33.669Z,99.99
2019-02-27T01:31:33.663Z,99.99
2019-02-27T01:32:33.537Z,99.99
2019-02-27T01:33:37.741Z,99.99
2019-02-27T01:34:33.455Z,99.99
2019-02-27T01:35:33.453Z,99.99
2019-02-27T01:36:33.362Z,99.99
2019-02-27T01:37:33.336Z,99.99
2019-02-27T01:38:33.268Z,99.99
2019-02-27T01:39:33.233Z,99.99
2019-02-27T01:40:33.189Z,99.99
2019-02-27T01:41:33.154Z,99.99
2019-02-27T01:42:33.113Z,99.99
2019-02-27T01:43:33.076Z,99.99
2019-02-27T01:44:33.013Z,99.99
2019-02-27T01:45:32.979Z,99.99
2019-02-27T01:46:32.939Z,99.99
2019-02-27T01:47:35.713Z,99.99
2019-02-27T01:48:32.870Z,99.99
2019-02-27T01:49:32.818Z,99.99
2019-02-27T01:50:32.752Z,99.99
2019-02-27T01:51:32.724Z,99.99
2019-02-27T01:52:34.077Z,99.99
2019-02-27T01:53:32.627Z,99.99
2019-02-27T01:54:32.640Z,99.99
2019-02-27T01:55:32.544Z,99.99
2019-02-27T01:56:32.549Z,99.99
2019-02-27T01:57:34.124Z,99.99
2019-02-27T01:58:32.416Z,99.99
2019-02-27T01:59:32.396Z,99.99
2019-02-27T02:00:32.344Z,99.99
2019-02-27T02:01:32.329Z,99.99
2019-02-27T02:02:32.260Z,99.99
2019-02-27T02:03:55.928Z,99.99
2019-02-27T02:04:32.241Z,99.99
2019-02-27T02:05:32.155Z,99.99
2019-02-27T02:06:32.949Z,99.99
2019-02-27T02:07:32.059Z,99.99
2019-02-27T02:08:32.002Z,99.99
2019-02-27T02:09:31.964Z,99.99
2019-02-27T02:10:31.917Z,99.99
2019-02-27T02:11:32.727Z,99.99
2019-02-27T02:12:31.843Z,99.99
2019-02-27T02:13:31.763Z,99.99
2019-02-27T02:14:31.763Z,99.99
2019-02-27T02:15:31.681Z,99.99
2019-02-27T02:16:34.097Z,99.99
2019-02-27T02:17:31.593Z,99.99
2019-02-27T02:18:31.566Z,99.99
2019-02-27T02:19:31.547Z,99.99
2019-02-27T02:20:31.483Z,99.99
2019-02-27T02:21:32.048Z,99.99
2019-02-27T02:22:31.396Z,99.99
2019-02-27T02:23:31.377Z,99.99
2019-02-27T02:24:31.347Z,99.99
2019-02-27T02:25:31.289Z,99.99
2019-02-27T02:26:32.108Z,99.99
2019-02-27T02:27:31.164Z,99.99
2019-02-27T02:28:31.140Z,99.99
2019-02-27T02:29:31.126Z,99.99
2019-02-27T02:30:31.043Z,99.99
2019-02-27T02:31:30.997Z,99.99
2019-02-27T02:32:30.962Z,99.99
2019-02-27T02:33:30.916Z,99.99
2019-02-27T02:34:30.941Z,99.99
2019-02-27T02:35:30.851Z,99.99
2019-02-27T02:36:30.787Z,99.99
2019-02-27T02:37:33.739Z,99.99
2019-02-27T02:38:30.727Z,99.99
2019-02-27T02:39:30.694Z,99.99
2019-02-27T02:40:32.034Z,99.99
2019-02-27T02:41:30.603Z,99.99
2019-02-27T02:42:30.537Z,99.99
2019-02-27T02:43:30.486Z,99.99
2019-02-27T02:44:30.441Z,99.99
2019-02-27T02:45:33.195Z,99.99
2019-02-27T02:46:30.353Z,99.99
2019-02-27T02:47:30.417Z,99.99
2019-02-27T02:48:31.232Z,99.99
2019-02-27T02:49:30.377Z,99.99
2019-02-27T02:50:30.178Z,99.99
2019-02-27T02:51:30.141Z,99.99
2019-02-27T02:52:30.107Z,99.99
2019-02-27T02:53:30.052Z,99.99
2019-02-27T02:54:36.395Z,99.99
2019-02-27T02:55:32.212Z,99.99
2019-02-27T02:56:29.929Z,99.99
2019-02-27T02:57:35.909Z,99.99
2019-02-27T02:58:29.835Z,99.99
2019-02-27T02:59:29.814Z,99.99
2019-02-27T03:00:29.798Z,99.99
2019-02-27T03:01:29.718Z,99.99
2019-02-27T03:02:29.916Z,99.99
2019-02-27T03:03:35.984Z,99.99
2019-02-27T03:04:29.606Z,99.99
2019-02-27T03:05:29.532Z,99.99
2019-02-27T03:06:34.410Z,99.99
2019-02-27T03:07:29.450Z,99.99
2019-02-27T03:08:29.432Z,99.99
2019-02-27T03:09:30.854Z,99.99
2019-02-27T03:10:29.354Z,99.99
2019-02-27T03:11:29.277Z,99.99
2019-02-27T03:12:30.963Z,99.99
2019-02-27T03:13:29.246Z,99.99
2019-02-27T03:14:29.284Z,99.99
2019-02-27T03:15:29.673Z,99.99
2019-02-27T03:16:29.083Z,99.99
2019-02-27T03:17:29.018Z,99.99
2019-02-27T03:18:29.586Z,99.99
2019-02-27T03:19:28.943Z,99.99
2019-02-27T03:20:28.901Z,99.99
2019-02-27T03:21:28.993Z,99.99
2019-02-27T03:22:28.814Z,99.99
2019-02-27T03:23:28.777Z,99.99
2019-02-27T03:24:29.060Z,99.99
2019-02-27T03:25:28.677Z,99.99
2019-02-27T03:26:28.628Z,99.99
2019-02-27T03:27:30.619Z,99.99
2019-02-27T03:28:28.544Z,99.99
2019-02-27T03:29:28.494Z,99.99
2019-02-27T03:30:34.767Z,99.99
2019-02-27T03:31:28.433Z,99.99
2019-02-27T03:32:28.371Z,99.99
2019-02-27T03:33:28.325Z,99.99
2019-02-27T03:34:28.284Z,99.99
2019-02-27T03:35:29.379Z,99.99
2019-02-27T03:36:28.250Z,99.99
2019-02-27T03:37:28.147Z,99.99
2019-02-27T03:38:28.108Z,99.99
2019-02-27T03:39:28.062Z,99.99
2019-02-27T03:40:28.015Z,99.99
2019-02-27T03:41:27.989Z,99.99
2019-02-27T03:42:30.790Z,99.99
2019-02-27T03:43:27.897Z,99.99
2019-02-27T03:44:27.878Z,99.99
2019-02-27T03:45:31.016Z,99.99
2019-02-27T03:46:27.764Z,99.99
2019-02-27T03:47:27.797Z,99.99
2019-02-27T03:48:28.408Z,99.99
2019-02-27T03:49:27.639Z,99.99
2019-02-27T03:50:27.585Z,99.99
2019-02-27T03:51:27.550Z,99.99
2019-02-27T03:52:27.527Z,99.99
2019-02-27T03:53:27.467Z,99.99
2019-02-27T03:54:27.433Z,99.99
2019-02-27T03:55:31.812Z,99.99
2019-02-27T03:56:27.359Z,99.99
2019-02-27T03:57:27.301Z,99.99
2019-02-27T03:58:30.449Z,99.99
2019-02-27T03:59:27.209Z,99.99
2019-02-27T04:00:27.160Z,99.99
2019-02-27T04:01:30.613Z,99.99
2019-02-27T04:02:27.071Z,99.99
2019-02-27T04:03:27.020Z,99.99
2019-02-27T04:04:30.553Z,99.99
2019-02-27T04:05:26.999Z,99.99
2019-02-27T04:06:26.908Z,99.99
2019-02-27T04:07:31.515Z,99.99
2019-02-27T04:08:26.813Z,99.99
2019-02-27T04:09:26.782Z,99.99
2019-02-27T04:10:30.894Z,99.99
2019-02-27T04:11:26.701Z,99.99
2019-02-27T04:12:26.647Z,99.99
2019-02-27T04:13:27.864Z,99.99
2019-02-27T04:14:26.583Z,99.99
2019-02-27T04:15:26.545Z,99.99
2019-02-27T04:16:29.304Z,99.99
2019-02-27T04:17:26.419Z,99.99
2019-02-27T04:18:28.377Z,99.99
2019-02-27T04:19:26.352Z,99.99
2019-02-27T04:20:26.340Z,99.99
2019-02-27T04:21:26.256Z,99.99
2019-02-27T04:22:26.210Z,99.99
2019-02-27T04:23:26.166Z,99.99
2019-02-27T04:24:26.117Z,99.99
2019-02-27T04:25:31.005Z,99.99
2019-02-27T04:26:26.028Z,99.99
2019-02-27T04:27:26.011Z,99.99
2019-02-27T04:28:29.489Z,99.99
2019-02-27T04:29:25.919Z,99.99
2019-02-27T04:30:25.891Z,99.99
2019-02-27T04:31:29.707Z,99.99
2019-02-27T04:32:25.787Z,99.99
2019-02-27T04:33:25.749Z,99.99
2019-02-27T04:34:25.729Z,99.99
2019-02-27T04:35:25.678Z,99.99
2019-02-27T04:36:25.614Z,99.99
2019-02-27T04:37:25.587Z,99.99
2019-02-27T04:38:27.519Z,99.99
2019-02-27T04:39:25.502Z,99.99
2019-02-27T04:40:25.442Z,99.99
2019-02-27T04:41:25.399Z,99.99
2019-02-27T04:42:25.746Z,99.99
2019-02-27T04:43:25.325Z,99.99
2019-02-27T04:44:25.305Z,99.99
2019-02-27T04:45:25.245Z,99.99
2019-02-27T04:46:25.210Z,99.99
2019-02-27T04:47:28.830Z,99.99
2019-02-27T04:48:27.051Z,99.99
2019-02-27T04:49:25.042Z,99.99
2019-02-27T04:50:25.015Z,99.99
2019-02-27T04:51:24.973Z,99.99
2019-02-27T04:52:24.958Z,99.99
2019-02-27T04:53:24.891Z,99.99
2019-02-27T04:54:24.847Z,99.99
2019-02-27T04:55:24.789Z,99.99
2019-02-27T04:56:24.741Z,99.99
2019-02-27T04:57:24.743Z,99.99
2019-02-27T04:58:24.659Z,99.99
2019-02-27T04:59:24.629Z,99.99
2019-02-27T05:00:26.390Z,99.99
2019-02-27T05:01:24.526Z,99.99
2019-02-27T05:02:24.477Z,99.99
2019-02-27T05:03:25.800Z,99.99
2019-02-27T05:04:24.395Z,99.99
2019-02-27T05:05:24.389Z,99.99
2019-02-27T05:06:24.332Z,99.99
2019-02-27T05:07:24.266Z,99.99
2019-02-27T05:08:26.899Z,99.99
2019-02-27T05:09:24.174Z,99.99
2019-02-27T05:10:24.152Z,99.99
2019-02-27T05:11:24.089Z,99.99
2019-02-27T05:12:24.053Z,99.99
2019-02-27T05:13:23.998Z,99.99
2019-02-27T05:14:24.814Z,99.99
2019-02-27T05:15:23.916Z,99.99
2019-02-27T05:16:23.864Z,99.99
2019-02-27T05:17:23.838Z,99.99
2019-02-27T05:18:23.776Z,99.99
2019-02-27T05:19:23.767Z,99.99
2019-02-27T05:20:23.688Z,99.99
2019-02-27T05:21:23.694Z,99.99
2019-02-27T05:22:26.582Z,99.99
2019-02-27T05:23:23.630Z,99.99
2019-02-27T05:24:23.510Z,99.99
2019-02-27T05:25:24.380Z,99.99
2019-02-27T05:26:27.061Z,99.99
2019-02-27T05:27:23.390Z,99.99
2019-02-27T05:28:23.361Z,99.99
2019-02-27T05:29:23.409Z,99.99
2019-02-27T05:30:23.281Z,99.99
2019-02-27T05:31:23.254Z,99.99
2019-02-27T05:32:27.889Z,99.99
2019-02-27T05:33:23.138Z,99.99
2019-02-27T05:34:23.087Z,99.99
2019-02-27T05:35:24.254Z,99.99
2019-02-27T05:36:22.993Z,99.99
2019-02-27T05:37:22.960Z,99.99
2019-02-27T05:38:22.962Z,99.99
2019-02-27T05:39:22.882Z,99.99
2019-02-27T05:40:23.086Z,99.99
2019-02-27T05:41:22.779Z,99.99
2019-02-27T05:42:22.773Z,99.99
2019-02-27T05:43:22.721Z,99.99
2019-02-27T05:44:22.698Z,99.99
2019-02-27T05:45:22.628Z,99.99
2019-02-27T05:46:22.561Z,99.99
2019-02-27T05:47:22.548Z,99.99
2019-02-27T05:48:22.483Z,99.99
2019-02-27T05:49:26.772Z,99.99
2019-02-27T05:50:22.408Z,99.99
2019-02-27T05:51:22.356Z,99.99
2019-02-27T05:52:22.324Z,99.99
2019-02-27T05:53:22.892Z,99.99
2019-02-27T05:54:22.212Z,99.99
2019-02-27T05:55:22.224Z,99.99
2019-02-27T05:56:22.156Z,99.99
2019-02-27T05:57:23.332Z,99.99
2019-02-27T05:58:23.063Z,99.99
2019-02-27T05:59:22.024Z,99.99
2019-02-27T06:00:21.966Z,99.99
2019-02-27T06:01:21.921Z,99.99
2019-02-27T06:02:21.878Z,99.99
2019-02-27T06:03:21.856Z,99.99
2019-02-27T06:04:24.980Z,99.99
2019-02-27T06:05:21.748Z,99.99
2019-02-27T06:06:21.697Z,99.99
2019-02-27T06:07:21.665Z,99.99
2019-02-27T06:08:21.607Z,99.99
2019-02-27T06:09:21.574Z,99.99
2019-02-27T06:10:23.407Z,99.99
2019-02-27T06:11:21.505Z,99.99
2019-02-27T06:12:21.437Z,99.99
2019-02-27T06:13:21.394Z,99.99
2019-02-27T06:14:21.985Z,99.99
2019-02-27T06:15:21.343Z,99.99
2019-02-27T06:16:21.299Z,99.99
2019-02-27T06:17:21.285Z,99.99
2019-02-27T06:18:23.406Z,99.99
2019-02-27T06:19:21.180Z,99.99
2019-02-27T06:20:21.126Z,99.99
2019-02-27T06:21:30.396Z,99.99
2019-02-27T06:23:15.310Z,99.99
2019-02-27T06:24:14.505Z,99.99
2019-02-27T06:26:09.066Z,99.99
2019-02-27T06:27:07.422Z,99.99
2019-02-27T06:29:01.493Z,99.99
2019-02-27T06:30:01.437Z,99.99
2019-02-27T06:31:53.924Z,99.99
2019-02-27T06:32:53.875Z,99.99
2019-02-27T06:34:47.652Z,99.99
2019-02-27T06:35:49.327Z,99.99
2019-02-27T06:37:40.110Z,99.99
2019-02-27T06:38:39.766Z,99.99
2019-02-27T06:41:34.159Z,99.99
2019-02-27T06:43:27.919Z,99.99
2019-02-27T06:44:27.150Z,99.99
2019-02-27T06:46:20.753Z,99.99
2019-02-27T06:47:19.189Z,99.99
2019-02-27T06:49:17.331Z,99.99
2019-02-27T06:50:12.128Z,99.99
2019-02-27T06:52:09.041Z,99.99
2019-02-27T06:53:06.297Z,99.99
2019-02-27T06:55:00.498Z,99.99
2019-02-27T06:56:02.950Z,99.99
2019-02-27T06:57:53.462Z,99.99
2019-02-27T06:58:52.507Z,99.99
2019-02-27T07:00:46.424Z,99.99
2019-02-27T07:01:47.525Z,99.99
2019-02-27T07:03:38.876Z,99.99
2019-02-27T07:04:39.484Z,99.99
2019-02-27T07:06:31.834Z,99.99
2019-02-27T07:07:31.924Z,99.99
2019-02-27T07:09:24.842Z,99.99
2019-02-27T07:10:25.245Z,99.99
2019-02-27T07:12:30.260Z,99.99
2019-02-27T07:13:30.395Z,99.99
2019-02-27T07:15:23.407Z,99.99
2019-02-27T07:16:23.743Z,99.99
2019-02-27T07:18:15.832Z,99.99
2019-02-27T07:19:16.425Z,99.99
2019-02-27T07:21:10.364Z,99.99
2019-02-27T07:22:12.506Z,99.99
2019-02-27T07:24:03.891Z,99.99
2019-02-27T07:25:06.384Z,99.99
2019-02-27T07:26:56.143Z,99.99
2019-02-27T07:27:55.831Z,99.99
2019-02-27T07:29:49.199Z,99.99
2019-02-27T07:30:48.774Z,98.64
2019-02-27T07:32:42.226Z,91.75
2019-02-27T07:33:41.766Z,88.28
2019-02-27T07:35:35.199Z,81.85
2019-02-27T07:36:35.984Z,79.66
2019-02-27T07:38:28.162Z,79.14
2019-02-27T07:39:27.770Z,79.11
2019-02-27T07:41:22.640Z,82.10
2019-02-27T07:42:22.248Z,83.82
2019-02-27T07:44:15.712Z,86.34
2019-02-27T07:45:15.339Z,88.15
2019-02-27T07:47:08.806Z,87.05
2019-02-27T07:48:08.310Z,86.99
2019-02-27T07:50:02.666Z,84.72
2019-02-27T07:51:01.785Z,83.33
2019-02-27T07:52:54.859Z,81.95
2019-02-27T07:53:55.083Z,80.42
2019-02-27T07:55:47.936Z,78.46
2019-02-27T07:56:47.501Z,77.22
2019-02-27T07:58:41.001Z,76.75
2019-02-27T07:59:40.565Z,77.00
2019-02-27T08:01:43.290Z,78.72
2019-02-27T08:02:36.204Z,80.96
2019-02-27T08:04:29.178Z,86.86
2019-02-27T08:05:29.186Z,88.57
2019-02-27T08:07:22.691Z,87.28
2019-02-27T08:08:23.750Z,85.52
2019-02-27T08:10:15.246Z,85.19
2019-02-27T08:11:15.152Z,84.86
2019-02-27T08:13:08.854Z,85.81
2019-02-27T08:14:07.848Z,87.90
2019-02-27T08:16:01.399Z,87.76
2019-02-27T08:17:02.438Z,86.09
2019-02-27T08:18:54.364Z,83.56
2019-02-27T08:19:54.397Z,80.84
2019-02-27T08:21:47.497Z,76.75
2019-02-27T08:22:48.204Z,77.03
2019-02-27T08:24:41.093Z,78.17
2019-02-27T08:25:40.803Z,80.04
2019-02-27T08:27:34.021Z,81.62
2019-02-27T08:28:33.586Z,83.52
2019-02-27T08:30:27.047Z,84.76
2019-02-27T08:31:28.342Z,84.47
2019-02-27T08:33:20.132Z,83.62
2019-02-27T08:34:20.012Z,82.32
2019-02-27T08:36:13.223Z,80.84
2019-02-27T08:37:12.737Z,81.51
2019-02-27T08:40:06.202Z,81.41
2019-02-27T08:42:03.350Z,80.75
2019-02-27T08:42:59.230Z,80.27
2019-02-27T08:44:52.347Z,81.03
2019-02-27T08:45:52.316Z,80.94
2019-02-27T08:47:45.447Z,81.36
2019-02-27T08:48:49.818Z,80.02
2019-02-27T08:50:38.977Z,79.02
2019-02-27T08:51:39.791Z,76.73
2019-02-27T08:52:38.372Z,76.64
2019-02-27T08:53:38.896Z,75.53
2019-02-27T08:54:38.325Z,74.38
2019-02-27T08:55:39.341Z,74.71
2019-02-27T08:56:38.297Z,74.04
2019-02-27T08:57:38.239Z,72.74
2019-02-27T08:58:38.736Z,71.88
2019-02-27T08:59:39.816Z,71.69
2019-02-27T09:00:37.820Z,71.02
2019-02-27T09:01:38.592Z,70.92
2019-02-27T09:02:39.658Z,70.83
2019-02-27T09:03:38.619Z,71.12
2019-02-27T09:04:38.695Z,70.64
2019-02-27T09:05:38.573Z,70.58
2019-02-27T09:06:38.548Z,69.62
2019-02-27T09:07:38.584Z,69.53
2019-02-27T09:08:37.968Z,69.37
2019-02-27T09:09:38.480Z,68.86
2019-02-27T09:10:38.447Z,68.80
2019-02-27T09:11:40.132Z,67.55
2019-02-27T09:12:40.098Z,67.55
2019-02-27T09:13:37.786Z,67.84
2019-02-27T09:14:37.805Z,66.99
2019-02-27T09:15:38.252Z,66.50
2019-02-27T09:16:37.325Z,66.25
2019-02-27T09:17:37.736Z,65.11
2019-02-27T09:18:37.700Z,64.85
2019-02-27T09:19:38.155Z,64.47
2019-02-27T09:20:37.636Z,64.75
2019-02-27T09:21:38.143Z,65.14
2019-02-27T09:22:38.139Z,65.84
2019-02-27T09:23:38.113Z,63.80
2019-02-27T09:24:37.516Z,63.89
2019-02-27T09:25:38.187Z,63.67
2019-02-27T09:26:38.010Z,63.89
2019-02-27T09:27:37.481Z,64.75
2019-02-27T09:28:37.946Z,65.04
2019-02-27T09:29:37.904Z,65.94
2019-02-27T09:30:36.991Z,66.00
2019-02-27T09:31:37.706Z,67.47
2019-02-27T09:32:37.357Z,61.72
2019-02-27T09:33:39.056Z,62.10
2019-02-27T09:34:37.290Z,60.22
2019-02-27T09:35:38.751Z,60.44
2019-02-27T09:36:37.258Z,56.53
2019-02-27T09:37:38.834Z,55.00
2019-02-27T09:38:37.196Z,55.19
2019-02-27T09:39:36.874Z,55.07
2019-02-27T09:40:38.837Z,54.97
2019-02-27T09:41:36.723Z,57.40
2019-02-27T09:42:36.667Z,55.60
2019-02-27T09:43:37.036Z,54.77
2019-02-27T09:44:37.258Z,47.92
2019-02-27T09:45:37.051Z,46.04
2019-02-27T09:46:37.030Z,47.75
2019-02-27T09:47:36.980Z,48.74
2019-02-27T09:48:37.432Z,51.26
2019-02-27T09:49:37.937Z,47.53
2019-02-27T09:50:36.977Z,48.13
2019-02-27T09:51:36.813Z,46.81
2019-02-27T09:52:36.847Z,47.58
2019-02-27T09:53:36.753Z,47.97
2019-02-27T09:54:36.940Z,48.25
2019-02-27T09:55:37.342Z,46.55
2019-02-27T09:56:36.792Z,47.77
2019-02-27T09:57:36.852Z,47.67
2019-02-27T09:58:36.743Z,46.57
2019-02-27T09:59:36.726Z,47.13
2019-02-27T10:00:36.312Z,44.35
2019-02-27T10:01:36.724Z,43.40
2019-02-27T10:02:36.655Z,43.99
2019-02-27T10:03:36.650Z,42.74
2019-02-27T10:04:36.664Z,41.97
2019-02-27T10:05:37.510Z,42.76
2019-02-27T10:06:36.594Z,44.71
2019-02-27T10:07:36.642Z,46.14
2019-02-27T10:08:36.597Z,45.25
2019-02-27T10:09:36.555Z,45.22
2019-02-27T10:10:36.567Z,45.51
2019-02-27T10:11:37.061Z,42.72
2019-02-27T10:12:36.526Z,37.62
2019-02-27T10:13:37.917Z,38.12
2019-02-27T10:14:36.489Z,36.41
2019-02-27T10:15:36.409Z,36.81
2019-02-27T10:16:36.392Z,35.36
2019-02-27T10:17:36.370Z,31.51
2019-02-27T10:18:36.422Z,32.47
2019-02-27T10:19:36.814Z,31.90
2019-02-27T10:20:37.320Z,32.95
2019-02-27T10:21:36.296Z,34.32
2019-02-27T10:22:36.260Z,34.72
2019-02-27T10:23:36.306Z,36.59
2019-02-27T10:24:36.918Z,34.10
2019-02-27T10:25:36.234Z,34.00
2019-02-27T10:26:36.241Z,34.00
2019-02-27T10:27:36.225Z,31.10
2019-02-27T10:28:39.068Z,33.42
2019-02-27T10:29:35.672Z,33.62
2019-02-27T10:30:35.669Z,35.57
2019-02-27T10:31:35.663Z,37.30
2019-02-27T10:32:36.601Z,35.18
2019-02-27T10:33:35.638Z,36.22
2019-02-27T10:34:36.287Z,37.10
2019-02-27T10:35:35.646Z,38.21
2019-02-27T10:36:38.162Z,39.36
2019-02-27T10:37:35.577Z,39.94
2019-02-27T10:38:40.201Z,41.94
2019-02-27T10:39:37.061Z,41.94
2019-02-27T10:40:35.498Z,41.07
2019-02-27T10:41:35.486Z,41.55
2019-02-27T10:42:35.447Z,41.14
2019-02-27T10:43:35.436Z,39.04
2019-02-27T10:44:35.410Z,37.33
2019-02-27T10:45:35.415Z,37.63
2019-02-27T10:46:35.370Z,39.57
2019-02-27T10:47:36.498Z,40.24
2019-02-27T10:48:36.775Z,39.09
2019-02-27T10:49:35.300Z,36.38
2019-02-27T10:50:36.107Z,36.21
2019-02-27T10:51:35.276Z,38.43
2019-02-27T10:52:35.277Z,37.10
2019-02-27T10:53:35.242Z,38.16
2019-02-27T10:54:37.061Z,34.68
2019-02-27T10:55:35.245Z,38.45
2019-02-27T10:56:35.194Z,37.67
2019-02-27T10:57:38.416Z,37.17
2019-02-27T10:58:35.150Z,38.06
2019-02-27T10:59:35.140Z,37.00
2019-02-27T11:00:35.127Z,35.18
2019-02-27T11:01:36.390Z,36.50
2019-02-27T11:02:35.095Z,37.77
2019-02-27T11:03:35.075Z,36.90
2019-02-27T11:04:36.325Z,35.68
2019-02-27T11:05:35.000Z,35.20
2019-02-27T11:06:37.779Z,33.47
2019-02-27T11:07:34.978Z,33.01
2019-02-27T11:08:34.946Z,30.18
2019-02-27T11:09:34.929Z,29.67
2019-02-27T11:10:34.914Z,30.05
2019-02-27T11:11:34.906Z,34.58
2019-02-27T11:12:34.889Z,39.12
2019-02-27T11:13:34.850Z,37.70
2019-02-27T11:14:34.840Z,40.69
2019-02-27T11:15:34.854Z,35.06
2019-02-27T11:16:34.842Z,31.96
2019-02-27T11:17:34.834Z,31.57
2019-02-27T11:18:34.788Z,32.26
2019-02-27T11:19:35.021Z,35.66
2019-02-27T11:20:34.809Z,36.16
2019-02-27T11:21:34.721Z,33.67
2019-02-27T11:22:34.694Z,33.59
2019-02-27T11:23:34.709Z,31.84
2019-02-27T11:24:34.655Z,32.04
2019-02-27T11:25:34.626Z,34.65
2019-02-27T11:26:34.608Z,36.76
2019-02-27T11:27:36.310Z,37.60
2019-02-27T11:28:34.618Z,38.45
2019-02-27T11:29:34.552Z,37.38
2019-02-27T11:30:36.825Z,38.45
2019-02-27T11:31:34.506Z,38.35
2019-02-27T11:32:34.521Z,37.96
2019-02-27T11:33:34.461Z,36.24
2019-02-27T11:34:34.455Z,38.74
2019-02-27T11:35:34.464Z,39.97
2019-02-27T11:36:35.007Z,40.44
2019-02-27T11:37:34.397Z,36.94
2019-02-27T11:38:34.396Z,39.34
2019-02-27T11:39:34.368Z,38.46
2019-02-27T11:40:34.350Z,39.45
2019-02-27T11:41:34.328Z,41.28
2019-02-27T11:42:34.306Z,42.25
2019-02-27T11:43:34.306Z,41.60
2019-02-27T11:44:34.329Z,42.85
2019-02-27T11:45:34.243Z,42.19
2019-02-27T11:46:35.171Z,40.24
2019-02-27T11:47:34.252Z,37.73
2019-02-27T11:48:34.193Z,37.93
2019-02-27T11:49:36.322Z,36.48
2019-02-27T11:50:34.150Z,38.87
2019-02-27T11:51:34.141Z,35.90
2019-02-27T11:52:34.147Z,37.83
2019-02-27T11:53:36.016Z,36.46
2019-02-27T11:54:34.104Z,39.36
2019-02-27T11:55:34.071Z,40.51
2019-02-27T11:56:34.068Z,41.07
2019-02-27T11:57:34.007Z,42.61
2019-02-27T11:58:35.235Z,40.49
2019-02-27T11:59:34.024Z,41.94
2019-02-27T12:00:33.959Z,39.24
2019-02-27T12:01:33.967Z,37.50
2019-02-27T12:02:37.152Z,37.19
2019-02-27T12:03:33.903Z,37.37
2019-02-27T12:04:33.897Z,36.71
2019-02-27T12:05:34.523Z,37.85
2019-02-27T12:06:33.854Z,36.51
2019-02-27T12:07:33.840Z,40.57
2019-02-27T12:08:33.815Z,42.88
2019-02-27T12:09:35.170Z,42.02
2019-02-27T12:10:33.759Z,40.57
2019-02-27T12:11:33.763Z,38.06
2019-02-27T12:12:33.750Z,38.83
2019-02-27T12:13:34.849Z,37.35
2019-02-27T12:14:33.675Z,40.72
2019-02-27T12:15:33.670Z,39.86
2019-02-27T12:16:33.665Z,39.68
2019-02-27T12:17:33.650Z,41.32
2019-02-27T12:18:34.554Z,42.97
2019-02-27T12:19:33.605Z,39.34
2019-02-27T12:20:33.570Z,37.31
2019-02-27T12:21:33.565Z,41.17
2019-02-27T12:22:35.308Z,41.46
2019-02-27T12:23:33.481Z,42.83
2019-02-27T12:24:33.492Z,43.87
2019-02-27T12:25:33.442Z,41.55
2019-02-27T12:26:34.432Z,42.35
2019-02-27T12:27:48.590Z,41.48
2019-02-27T12:28:33.379Z,41.19
2019-02-27T12:29:33.362Z,39.82
2019-02-27T12:30:37.141Z,38.26
2019-02-27T12:31:33.320Z,36.23
2019-02-27T12:32:33.345Z,35.27
2019-02-27T12:33:34.466Z,36.13
2019-02-27T12:34:34.046Z,38.35
2019-02-27T12:35:33.244Z,38.06
2019-02-27T12:36:33.239Z,37.77
2019-02-27T12:37:34.730Z,41.44
2019-02-27T12:38:33.180Z,38.74
2019-02-27T12:39:33.143Z,36.61
2019-02-27T12:40:33.141Z,36.43
2019-02-27T12:41:33.351Z,36.81
2019-02-27T12:42:37.342Z,37.64
2019-02-27T12:43:33.072Z,43.61
2019-02-27T12:44:34.488Z,42.07
2019-02-27T12:45:33.076Z,39.83
2019-02-27T12:46:34.205Z,39.26
2019-02-27T12:47:33.015Z,39.56
2019-02-27T12:48:33.018Z,39.87
2019-02-27T12:49:32.923Z,38.12
2019-02-27T12:50:32.922Z,38.99
2019-02-27T12:51:35.280Z,38.20
2019-02-27T12:52:32.947Z,41.39
2019-02-27T12:53:32.883Z,39.56
2019-02-27T12:54:32.816Z,43.30
2019-02-27T12:55:35.413Z,40.34
2019-02-27T12:56:32.814Z,44.09
2019-02-27T12:57:32.771Z,44.84
2019-02-27T12:58:32.734Z,40.24
2019-02-27T12:59:33.014Z,42.84
2019-02-27T13:00:32.709Z,44.38
2019-02-27T13:01:32.664Z,42.93
2019-02-27T13:02:35.797Z,39.47
2019-02-27T13:03:32.642Z,42.16
2019-02-27T13:04:32.608Z,42.93
2019-02-27T13:05:32.690Z,42.07
2019-02-27T13:06:37.167Z,45.34
2019-02-27T13:07:32.551Z,44.38
2019-02-27T13:08:32.496Z,39.47
2019-02-27T13:09:32.488Z,40.36
2019-02-27T13:10:34.062Z,41.97
2019-02-27T13:11:32.456Z,42.96
2019-02-27T13:12:32.434Z,45.56
2019-02-27T13:13:32.381Z,41.32
2019-02-27T13:14:33.267Z,41.80
2019-02-27T13:15:32.353Z,40.53
2019-02-27T13:16:32.337Z,37.91
2019-02-27T13:17:32.798Z,38.31
2019-02-27T13:18:32.740Z,41.61
2019-02-27T13:19:32.295Z,43.15
2019-02-27T13:20:32.257Z,42.16
2019-02-27T13:21:32.240Z,43.51
2019-02-27T13:22:32.183Z,40.03
2019-02-27T13:23:32.158Z,42.36
2019-02-27T13:24:32.152Z,40.51
2019-02-27T13:25:32.144Z,41.76
2019-02-27T13:26:34.745Z,39.09
2019-02-27T13:27:32.066Z,41.88
2019-02-27T13:28:32.106Z,38.51
2019-02-27T13:29:32.024Z,42.16
2019-02-27T13:30:32.014Z,41.95
2019-02-27T13:31:31.994Z,40.61
2019-02-27T13:32:31.963Z,38.59
2019-02-27T13:33:32.940Z,41.49
2019-02-27T13:34:31.918Z,41.66
2019-02-27T13:35:31.889Z,43.49
2019-02-27T13:36:34.130Z,41.66
2019-02-27T13:37:31.831Z,44.26
2019-02-27T13:38:31.818Z,40.39
2019-02-27T13:39:31.794Z,41.64
2019-02-27T13:40:35.160Z,45.01